sensor_id;sensor_type;location;lat;lon;timestamp;temperature;humidity
7496;DHT22;3789;47.064;15.482;2023-03-01T00:01:28;0.60;99.90
7496;DHT22;3789;47.064;15.482;2023-03-01T00:03:56;0.60;99.90
7496;DHT22;3789;47.064;15.482;2023-03-01T00:06:24;0.60;99.90
7496;DHT22;3789;47.064;15.482;2023-03-01T00:08:52;0.60;99.90
7496;DHT22;3789;47.064;15.482;2023-03-01T00:11:20;0.60;99.90
7496;DHT22;3789;47.064;15.482;2023-03-01T00:13:50;0.60;99.90
7496;DHT22;3789;47.064;15.482;2023-03-01T00:16:22;0.50;99.90
7496;DHT22;3789;47.064;15.482;2023-03-01T00:18:50;0.50;99.90
7496;DHT22;3789;47.064;15.482;2023-03-01T00:21:20;0.50;99.90
7496;DHT22;3789;47.064;15.482;2023-03-01T00:23:49;0.60;99.90
7496;DHT22;3789;47.064;15.482;2023-03-01T00:26:19;0.60;99.90
7496;DHT22;3789;47.064;15.482;2023-03-01T00:28:47;0.60;99.90
7496;DHT22;3789;47.064;15.482;2023-03-01T00:31:21;0.60;99.90
7496;DHT22;3789;47.064;15.482;2023-03-01T00:33:50;0.60;99.90
7496;DHT22;3789;47.064;15.482;2023-03-01T00:36:19;0.60;99.90
7496;DHT22;3789;47.064;15.482;2023-03-01T00:38:47;0.60;99.90
7496;DHT22;3789;47.064;15.482;2023-03-01T00:41:16;0.60;99.90
7496;DHT22;3789;47.064;15.482;2023-03-01T00:43:45;0.70;99.90
7496;DHT22;3789;47.064;15.482;2023-03-01T00:46:16;0.60;99.90
7496;DHT22;3789;47.064;15.482;2023-03-01T00:48:44;0.70;99.90
7496;DHT22;3789;47.064;15.482;2023-03-01T00:53:43;0.80;99.90
7496;DHT22;3789;47.064;15.482;2023-03-01T00:56:12;0.90;99.90
7496;DHT22;3789;47.064;15.482;2023-03-01T00:58:40;1.00;99.90
7496;DHT22;3789;47.064;15.482;2023-03-01T01:03:52;1.10;99.90
7496;DHT22;3789;47.064;15.482;2023-03-01T01:06:26;1.00;99.90
7496;DHT22;3789;47.064;15.482;2023-03-01T01:08:54;1.00;99.90
7496;DHT22;3789;47.064;15.482;2023-03-01T01:11:24;1.00;99.90
7496;DHT22;3789;47.064;15.482;2023-03-01T01:13:51;1.00;99.90
7496;DHT22;3789;47.064;15.482;2023-03-01T01:16:21;1.10;99.90
7496;DHT22;3789;47.064;15.482;2023-03-01T01:18:49;1.00;99.90
7496;DHT22;3789;47.064;15.482;2023-03-01T01:21:19;1.00;99.90
7496;DHT22;3789;47.064;15.482;2023-03-01T01:23:48;1.00;99.90
7496;DHT22;3789;47.064;15.482;2023-03-01T01:26:18;1.00;99.90
7496;DHT22;3789;47.064;15.482;2023-03-01T01:28:47;1.00;99.90
7496;DHT22;3789;47.064;15.482;2023-03-01T01:31:15;1.10;99.90
7496;DHT22;3789;47.064;15.482;2023-03-01T01:33:42;1.10;99.90
7496;DHT22;3789;47.064;15.482;2023-03-01T01:36:11;1.10;99.90
7496;DHT22;3789;47.064;15.482;2023-03-01T01:38:38;1.10;99.90
7496;DHT22;3789;47.064;15.482;2023-03-01T01:41:06;1.10;99.90
7496;DHT22;3789;47.064;15.482;2023-03-01T01:43:37;1.20;99.90
7496;DHT22;3789;47.064;15.482;2023-03-01T01:46:10;1.20;99.90
7496;DHT22;3789;47.064;15.482;2023-03-01T01:48:46;1.20;99.90
7496;DHT22;3789;47.064;15.482;2023-03-01T01:51:19;1.30;99.90
7496;DHT22;3789;47.064;15.482;2023-03-01T01:53:55;1.20;99.90
7496;DHT22;3789;47.064;15.482;2023-03-01T01:56:25;1.20;99.90
7496;DHT22;3789;47.064;15.482;2023-03-01T01:58:54;1.20;99.90
7496;DHT22;3789;47.064;15.482;2023-03-01T02:01:22;1.20;99.90
7496;DHT22;3789;47.064;15.482;2023-03-01T02:03:49;1.10;99.90
7496;DHT22;3789;47.064;15.482;2023-03-01T02:06:34;1.00;99.90
7496;DHT22;3789;47.064;15.482;2023-03-01T02:09:08;1.00;99.90
7496;DHT22;3789;47.064;15.482;2023-03-01T02:11:38;1.00;99.90
7496;DHT22;3789;47.064;15.482;2023-03-01T02:14:06;1.00;99.90
7496;DHT22;3789;47.064;15.482;2023-03-01T02:16:34;1.00;99.90
7496;DHT22;3789;47.064;15.482;2023-03-01T02:19:03;1.00;99.90
7496;DHT22;3789;47.064;15.482;2023-03-01T02:22:28;1.10;99.90
7496;DHT22;3789;47.064;15.482;2023-03-01T02:27:38;0.60;99.90
7496;DHT22;3789;47.064;15.482;2023-03-01T02:30:08;-1.20;99.90
7496;DHT22;3789;47.064;15.482;2023-03-01T02:32:40;-2.60;99.90
7496;DHT22;3789;47.064;15.482;2023-03-01T02:35:15;-3.40;99.90
7496;DHT22;3789;47.064;15.482;2023-03-01T02:37:44;-3.90;99.90
7496;DHT22;3789;47.064;15.482;2023-03-01T02:40:15;-4.20;99.90
7496;DHT22;3789;47.064;15.482;2023-03-01T02:42:56;-4.40;99.90
7496;DHT22;3789;47.064;15.482;2023-03-01T02:45:25;-4.70;99.90
7496;DHT22;3789;47.064;15.482;2023-03-01T02:47:57;-4.70;99.90
7496;DHT22;3789;47.064;15.482;2023-03-01T02:53:27;-5.00;99.90
7496;DHT22;3789;47.064;15.482;2023-03-01T02:55:57;-5.10;99.90
7496;DHT22;3789;47.064;15.482;2023-03-01T02:58:24;-5.20;99.90
7496;DHT22;3789;47.064;15.482;2023-03-01T03:00:52;-5.30;99.90
7496;DHT22;3789;47.064;15.482;2023-03-01T03:03:20;-5.20;99.90
7496;DHT22;3789;47.064;15.482;2023-03-01T03:05:49;-5.10;99.90
7496;DHT22;3789;47.064;15.482;2023-03-01T03:08:16;-5.20;99.90
7496;DHT22;3789;47.064;15.482;2023-03-01T03:10:51;-5.20;99.90
7496;DHT22;3789;47.064;15.482;2023-03-01T03:13:18;-5.20;99.90
7496;DHT22;3789;47.064;15.482;2023-03-01T03:15:46;-5.40;99.90
7496;DHT22;3789;47.064;15.482;2023-03-01T03:18:16;-5.60;99.90
7496;DHT22;3789;47.064;15.482;2023-03-01T03:20:44;-5.70;99.90
7496;DHT22;3789;47.064;15.482;2023-03-01T03:23:13;-5.80;99.90
7496;DHT22;3789;47.064;15.482;2023-03-01T03:25:40;-5.80;99.90
7496;DHT22;3789;47.064;15.482;2023-03-01T03:28:08;-6.00;99.90
7496;DHT22;3789;47.064;15.482;2023-03-01T03:30:40;-6.20;99.90
7496;DHT22;3789;47.064;15.482;2023-03-01T03:33:09;-6.30;99.90
7496;DHT22;3789;47.064;15.482;2023-03-01T03:35:45;-6.30;99.90
7496;DHT22;3789;47.064;15.482;2023-03-01T03:38:14;-6.40;99.90
7496;DHT22;3789;47.064;15.482;2023-03-01T03:40:45;-6.40;99.90
7496;DHT22;3789;47.064;15.482;2023-03-01T03:43:14;-6.40;99.90
7496;DHT22;3789;47.064;15.482;2023-03-01T03:45:44;-6.40;99.90
7496;DHT22;3789;47.064;15.482;2023-03-01T03:48:12;-6.40;99.90
7496;DHT22;3789;47.064;15.482;2023-03-01T03:50:40;-6.50;99.90
7496;DHT22;3789;47.064;15.482;2023-03-01T03:53:10;-6.50;99.90
7496;DHT22;3789;47.064;15.482;2023-03-01T03:55:39;-6.50;99.90
7496;DHT22;3789;47.064;15.482;2023-03-01T03:58:08;-6.60;99.90
7496;DHT22;3789;47.064;15.482;2023-03-01T04:00:42;-6.60;99.90
7496;DHT22;3789;47.064;15.482;2023-03-01T04:03:12;-6.60;99.90
7496;DHT22;3789;47.064;15.482;2023-03-01T04:05:41;-6.60;99.90
7496;DHT22;3789;47.064;15.482;2023-03-01T04:08:09;-6.60;99.90
7496;DHT22;3789;47.064;15.482;2023-03-01T04:10:39;-6.60;99.90
7496;DHT22;3789;47.064;15.482;2023-03-01T04:13:09;-6.60;99.90
7496;DHT22;3789;47.064;15.482;2023-03-01T04:15:37;-6.50;99.90
7496;DHT22;3789;47.064;15.482;2023-03-01T04:18:05;-6.50;99.90
7496;DHT22;3789;47.064;15.482;2023-03-01T04:20:35;-6.60;99.90
7496;DHT22;3789;47.064;15.482;2023-03-01T04:23:14;-6.60;99.90
7496;DHT22;3789;47.064;15.482;2023-03-01T04:25:58;-6.70;99.90
7496;DHT22;3789;47.064;15.482;2023-03-01T04:28:32;-6.40;99.90
7496;DHT22;3789;47.064;15.482;2023-03-01T04:31:05;-5.10;99.90
7496;DHT22;3789;47.064;15.482;2023-03-01T04:36:12;-3.30;99.90
7496;DHT22;3789;47.064;15.482;2023-03-01T04:38:40;-2.50;99.90
7496;DHT22;3789;47.064;15.482;2023-03-01T04:41:10;-2.10;99.90
7496;DHT22;3789;47.064;15.482;2023-03-01T04:43:38;-1.80;99.90
7496;DHT22;3789;47.064;15.482;2023-03-01T04:46:07;-1.60;99.90
7496;DHT22;3789;47.064;15.482;2023-03-01T04:48:38;-1.50;99.90
7496;DHT22;3789;47.064;15.482;2023-03-01T04:51:06;-1.30;99.90
7496;DHT22;3789;47.064;15.482;2023-03-01T04:53:35;-1.10;99.90
7496;DHT22;3789;47.064;15.482;2023-03-01T04:56:05;-1.00;99.90
7496;DHT22;3789;47.064;15.482;2023-03-01T04:58:33;-0.90;99.90
7496;DHT22;3789;47.064;15.482;2023-03-01T05:01:01;-0.80;99.90
7496;DHT22;3789;47.064;15.482;2023-03-01T05:03:28;-0.70;99.90
7496;DHT22;3789;47.064;15.482;2023-03-01T05:05:58;-0.40;99.90
7496;DHT22;3789;47.064;15.482;2023-03-01T05:08:26;-0.20;99.90
7496;DHT22;3789;47.064;15.482;2023-03-01T05:10:54;-0.10;99.90
7496;DHT22;3789;47.064;15.482;2023-03-01T05:13:22;0.00;99.90
7496;DHT22;3789;47.064;15.482;2023-03-01T05:16:00;0.10;99.90
7496;DHT22;3789;47.064;15.482;2023-03-01T05:18:31;0.30;99.90
7496;DHT22;3789;47.064;15.482;2023-03-01T05:21:16;0.30;99.90
7496;DHT22;3789;47.064;15.482;2023-03-01T05:23:44;0.40;99.90
7496;DHT22;3789;47.064;15.482;2023-03-01T05:26:12;0.40;99.90
7496;DHT22;3789;47.064;15.482;2023-03-01T05:28:54;0.50;99.90
7496;DHT22;3789;47.064;15.482;2023-03-01T05:31:27;0.50;99.90
7496;DHT22;3789;47.064;15.482;2023-03-01T05:33:55;0.50;99.90
7496;DHT22;3789;47.064;15.482;2023-03-01T05:36:22;0.60;99.90
7496;DHT22;3789;47.064;15.482;2023-03-01T05:38:49;0.60;99.90
7496;DHT22;3789;47.064;15.482;2023-03-01T05:41:16;0.60;99.90
7496;DHT22;3789;47.064;15.482;2023-03-01T05:43:44;0.60;99.90
7496;DHT22;3789;47.064;15.482;2023-03-01T05:46:12;0.60;99.90
7496;DHT22;3789;47.064;15.482;2023-03-01T05:48:42;0.60;99.90
7496;DHT22;3789;47.064;15.482;2023-03-01T05:51:10;0.60;99.90
7496;DHT22;3789;47.064;15.482;2023-03-01T05:53:39;0.60;99.90
7496;DHT22;3789;47.064;15.482;2023-03-01T05:56:06;0.70;99.90
7496;DHT22;3789;47.064;15.482;2023-03-01T05:58:34;0.80;99.90
7496;DHT22;3789;47.064;15.482;2023-03-01T06:01:01;0.80;99.90
7496;DHT22;3789;47.064;15.482;2023-03-01T06:03:29;0.80;99.90
7496;DHT22;3789;47.064;15.482;2023-03-01T06:05:57;0.90;99.90
7496;DHT22;3789;47.064;15.482;2023-03-01T06:08:25;1.00;99.90
7496;DHT22;3789;47.064;15.482;2023-03-01T06:10:54;0.90;99.90
7496;DHT22;3789;47.064;15.482;2023-03-01T06:13:22;0.90;99.90
7496;DHT22;3789;47.064;15.482;2023-03-01T06:15:50;0.90;99.90
7496;DHT22;3789;47.064;15.482;2023-03-01T06:18:18;0.90;99.90
7496;DHT22;3789;47.064;15.482;2023-03-01T06:20:53;1.00;99.90
7496;DHT22;3789;47.064;15.482;2023-03-01T06:23:20;1.00;99.90
7496;DHT22;3789;47.064;15.482;2023-03-01T06:25:48;1.00;99.90
7496;DHT22;3789;47.064;15.482;2023-03-01T06:28:15;1.00;99.90
7496;DHT22;3789;47.064;15.482;2023-03-01T06:30:43;1.00;99.90
7496;DHT22;3789;47.064;15.482;2023-03-01T06:33:12;1.00;99.90
7496;DHT22;3789;47.064;15.482;2023-03-01T06:35:41;1.00;99.90
7496;DHT22;3789;47.064;15.482;2023-03-01T06:38:09;1.10;99.90
7496;DHT22;3789;47.064;15.482;2023-03-01T06:40:37;1.20;99.90
7496;DHT22;3789;47.064;15.482;2023-03-01T06:43:04;1.30;99.90
7496;DHT22;3789;47.064;15.482;2023-03-01T06:45:32;1.30;99.90
7496;DHT22;3789;47.064;15.482;2023-03-01T06:48:06;1.40;99.90
7496;DHT22;3789;47.064;15.482;2023-03-01T06:50:35;1.50;99.90
7496;DHT22;3789;47.064;15.482;2023-03-01T06:53:02;1.50;99.90
7496;DHT22;3789;47.064;15.482;2023-03-01T06:55:31;1.60;99.90
7496;DHT22;3789;47.064;15.482;2023-03-01T06:58:00;1.60;99.90
7496;DHT22;3789;47.064;15.482;2023-03-01T07:00:28;1.50;99.90
7496;DHT22;3789;47.064;15.482;2023-03-01T07:02:59;1.60;99.90
7496;DHT22;3789;47.064;15.482;2023-03-01T07:05:28;1.60;99.90
7496;DHT22;3789;47.064;15.482;2023-03-01T07:07:55;1.60;99.90
7496;DHT22;3789;47.064;15.482;2023-03-01T07:10:23;1.70;99.90
7496;DHT22;3789;47.064;15.482;2023-03-01T07:12:54;1.70;99.90
7496;DHT22;3789;47.064;15.482;2023-03-01T07:15:22;1.70;99.90
7496;DHT22;3789;47.064;15.482;2023-03-01T07:17:50;1.80;99.90
7496;DHT22;3789;47.064;15.482;2023-03-01T07:20:18;1.80;99.90
7496;DHT22;3789;47.064;15.482;2023-03-01T07:22:49;1.90;99.90
7496;DHT22;3789;47.064;15.482;2023-03-01T07:25:16;1.90;99.90
7496;DHT22;3789;47.064;15.482;2023-03-01T07:27:43;1.90;99.90
7496;DHT22;3789;47.064;15.482;2023-03-01T07:30:11;1.90;99.90
7496;DHT22;3789;47.064;15.482;2023-03-01T07:32:38;1.80;99.90
7496;DHT22;3789;47.064;15.482;2023-03-01T07:35:06;1.70;99.90
7496;DHT22;3789;47.064;15.482;2023-03-01T07:37:34;1.70;99.90
7496;DHT22;3789;47.064;15.482;2023-03-01T07:40:01;1.60;99.90
7496;DHT22;3789;47.064;15.482;2023-03-01T07:42:28;1.70;99.90
7496;DHT22;3789;47.064;15.482;2023-03-01T07:44:55;1.70;99.90
7496;DHT22;3789;47.064;15.482;2023-03-01T07:47:22;1.80;99.90
7496;DHT22;3789;47.064;15.482;2023-03-01T07:49:49;1.90;99.90
7496;DHT22;3789;47.064;15.482;2023-03-01T07:52:17;2.00;99.90
7496;DHT22;3789;47.064;15.482;2023-03-01T07:54:44;2.10;99.90
7496;DHT22;3789;47.064;15.482;2023-03-01T07:57:11;2.20;99.90
7496;DHT22;3789;47.064;15.482;2023-03-01T07:59:39;2.20;99.90
7496;DHT22;3789;47.064;15.482;2023-03-01T08:02:07;2.30;99.90
7496;DHT22;3789;47.064;15.482;2023-03-01T08:04:35;2.30;99.90
7496;DHT22;3789;47.064;15.482;2023-03-01T08:07:05;2.40;99.90
7496;DHT22;3789;47.064;15.482;2023-03-01T08:09:35;2.40;99.90
7496;DHT22;3789;47.064;15.482;2023-03-01T08:12:04;2.50;99.90
7496;DHT22;3789;47.064;15.482;2023-03-01T08:14:32;2.60;99.90
7496;DHT22;3789;47.064;15.482;2023-03-01T08:17:00;2.70;99.90
7496;DHT22;3789;47.064;15.482;2023-03-01T08:19:30;2.70;99.90
7496;DHT22;3789;47.064;15.482;2023-03-01T08:21:58;2.60;99.90
7496;DHT22;3789;47.064;15.482;2023-03-01T08:24:25;2.50;99.90
7496;DHT22;3789;47.064;15.482;2023-03-01T08:26:53;2.20;99.90
7496;DHT22;3789;47.064;15.482;2023-03-01T08:29:21;2.10;99.90
7496;DHT22;3789;47.064;15.482;2023-03-01T08:31:48;2.00;99.90
7496;DHT22;3789;47.064;15.482;2023-03-01T08:34:17;2.20;99.90
7496;DHT22;3789;47.064;15.482;2023-03-01T08:36:45;2.20;99.90
7496;DHT22;3789;47.064;15.482;2023-03-01T08:39:15;2.20;99.90
7496;DHT22;3789;47.064;15.482;2023-03-01T08:41:43;2.30;99.90
7496;DHT22;3789;47.064;15.482;2023-03-01T08:44:14;2.20;99.90
7496;DHT22;3789;47.064;15.482;2023-03-01T08:46:44;2.20;99.90
7496;DHT22;3789;47.064;15.482;2023-03-01T08:49:15;2.20;99.90
7496;DHT22;3789;47.064;15.482;2023-03-01T08:51:43;2.30;99.90
7496;DHT22;3789;47.064;15.482;2023-03-01T08:54:12;2.20;99.90
7496;DHT22;3789;47.064;15.482;2023-03-01T08:56:40;2.20;99.90
7496;DHT22;3789;47.064;15.482;2023-03-01T08:59:08;2.30;99.90
7496;DHT22;3789;47.064;15.482;2023-03-01T09:01:36;2.30;99.90
7496;DHT22;3789;47.064;15.482;2023-03-01T09:04:04;2.40;99.90
7496;DHT22;3789;47.064;15.482;2023-03-01T09:06:33;2.50;99.90
7496;DHT22;3789;47.064;15.482;2023-03-01T09:09:01;2.70;99.90
7496;DHT22;3789;47.064;15.482;2023-03-01T09:11:29;2.70;99.90
7496;DHT22;3789;47.064;15.482;2023-03-01T09:13:57;2.80;99.90
7496;DHT22;3789;47.064;15.482;2023-03-01T09:16:24;2.60;99.90
7496;DHT22;3789;47.064;15.482;2023-03-01T09:18:53;2.60;99.90
7496;DHT22;3789;47.064;15.482;2023-03-01T09:21:22;1.90;99.90
7496;DHT22;3789;47.064;15.482;2023-03-01T09:24:12;0.30;99.90
7496;DHT22;3789;47.064;15.482;2023-03-01T09:26:39;-1.10;99.90
7496;DHT22;3789;47.064;15.482;2023-03-01T09:29:07;-2.10;99.90
7496;DHT22;3789;47.064;15.482;2023-03-01T09:31:37;-2.60;99.90
7496;DHT22;3789;47.064;15.482;2023-03-01T09:34:06;-3.10;99.90
7496;DHT22;3789;47.064;15.482;2023-03-01T09:36:33;-3.30;99.90
7496;DHT22;3789;47.064;15.482;2023-03-01T09:39:02;-3.50;99.90
7496;DHT22;3789;47.064;15.482;2023-03-01T09:41:46;-3.60;99.90
7496;DHT22;3789;47.064;15.482;2023-03-01T09:46:55;-3.70;99.90
7496;DHT22;3789;47.064;15.482;2023-03-01T09:49:27;-3.80;99.90
7496;DHT22;3789;47.064;15.482;2023-03-01T09:54:27;-4.00;99.90
7496;DHT22;3789;47.064;15.482;2023-03-01T09:57:19;-4.00;99.90
7496;DHT22;3789;47.064;15.482;2023-03-01T10:02:42;-4.10;99.90
7496;DHT22;3789;47.064;15.482;2023-03-01T10:08:32;-4.00;99.90
7496;DHT22;3789;47.064;15.482;2023-03-01T10:11:05;-4.00;99.90
7496;DHT22;3789;47.064;15.482;2023-03-01T10:16:16;-3.90;99.90
7496;DHT22;3789;47.064;15.482;2023-03-01T10:18:46;-3.90;99.90
7496;DHT22;3789;47.064;15.482;2023-03-01T10:21:19;-4.00;99.90
7496;DHT22;3789;47.064;15.482;2023-03-01T10:23:50;-4.00;99.90
7496;DHT22;3789;47.064;15.482;2023-03-01T10:26:39;-4.10;99.90
7496;DHT22;3789;47.064;15.482;2023-03-01T10:29:12;-4.20;99.90
7496;DHT22;3789;47.064;15.482;2023-03-01T10:31:46;-4.10;99.90
7496;DHT22;3789;47.064;15.482;2023-03-01T10:34:31;-3.70;99.90
7496;DHT22;3789;47.064;15.482;2023-03-01T10:37:14;-3.30;99.90
7496;DHT22;3789;47.064;15.482;2023-03-01T10:40:01;-3.20;99.90
7496;DHT22;3789;47.064;15.482;2023-03-01T10:42:38;-3.60;99.90
7496;DHT22;3789;47.064;15.482;2023-03-01T10:50:48;-3.50;99.90
7496;DHT22;3789;47.064;15.482;2023-03-01T10:53:38;-2.70;99.90
7496;DHT22;3789;47.064;15.482;2023-03-01T10:56:12;-1.80;99.90
7496;DHT22;3789;47.064;15.482;2023-03-01T10:59:03;-0.80;99.90
7496;DHT22;3789;47.064;15.482;2023-03-01T11:01:33;0.00;99.90
7496;DHT22;3789;47.064;15.482;2023-03-01T11:06:34;1.00;99.90
7496;DHT22;3789;47.064;15.482;2023-03-01T11:09:21;1.20;99.90
7496;DHT22;3789;47.064;15.482;2023-03-01T11:11:54;1.50;99.90
7496;DHT22;3789;47.064;15.482;2023-03-01T11:14:27;1.70;99.90
7496;DHT22;3789;47.064;15.482;2023-03-01T11:17:04;1.90;99.90
7496;DHT22;3789;47.064;15.482;2023-03-01T11:19:32;2.00;99.90
7496;DHT22;3789;47.064;15.482;2023-03-01T11:22:05;2.10;99.90
7496;DHT22;3789;47.064;15.482;2023-03-01T11:24:42;2.20;99.90
7496;DHT22;3789;47.064;15.482;2023-03-01T11:27:21;2.30;99.90
7496;DHT22;3789;47.064;15.482;2023-03-01T11:29:58;2.30;99.90
7496;DHT22;3789;47.064;15.482;2023-03-01T11:32:29;2.30;99.90
7496;DHT22;3789;47.064;15.482;2023-03-01T11:35:21;2.30;99.90
7496;DHT22;3789;47.064;15.482;2023-03-01T11:38:09;2.40;99.90
7496;DHT22;3789;47.064;15.482;2023-03-01T11:41:01;2.50;99.90
7496;DHT22;3789;47.064;15.482;2023-03-01T11:43:38;2.70;99.90
7496;DHT22;3789;47.064;15.482;2023-03-01T11:49:31;3.10;99.90
7496;DHT22;3789;47.064;15.482;2023-03-01T11:54:44;3.40;99.90
7496;DHT22;3789;47.064;15.482;2023-03-01T12:08:07;3.80;99.90
7496;DHT22;3789;47.064;15.482;2023-03-01T12:13:59;4.40;99.90
7496;DHT22;3789;47.064;15.482;2023-03-01T12:24:47;5.00;99.90
7496;DHT22;3789;47.064;15.482;2023-03-01T12:43:47;5.70;99.90
7496;DHT22;3789;47.064;15.482;2023-03-01T12:51:44;5.90;99.90
7496;DHT22;3789;47.064;15.482;2023-03-01T12:54:41;5.80;99.90
7496;DHT22;3789;47.064;15.482;2023-03-01T12:57:25;5.60;99.90
7496;DHT22;3789;47.064;15.482;2023-03-01T13:00:06;5.70;99.90
7496;DHT22;3789;47.064;15.482;2023-03-01T13:02:47;5.40;99.90
7496;DHT22;3789;47.064;15.482;2023-03-01T13:08:02;5.50;99.90
7496;DHT22;3789;47.064;15.482;2023-03-01T13:11:04;5.50;99.90
7496;DHT22;3789;47.064;15.482;2023-03-01T13:13:32;5.50;99.90
7496;DHT22;3789;47.064;15.482;2023-03-01T13:17:01;5.70;99.90
7496;DHT22;3789;47.064;15.482;2023-03-01T13:19:21;5.90;99.90
7496;DHT22;3789;47.064;15.482;2023-03-01T13:21:50;6.00;99.90
7496;DHT22;3789;47.064;15.482;2023-03-01T13:24:41;5.90;99.90
7496;DHT22;3789;47.064;15.482;2023-03-01T13:27:22;6.00;99.90
7496;DHT22;3789;47.064;15.482;2023-03-01T13:29:58;6.10;99.90
7496;DHT22;3789;47.064;15.482;2023-03-01T13:32:34;6.00;99.90
7496;DHT22;3789;47.064;15.482;2023-03-01T13:37:45;5.80;99.90
7496;DHT22;3789;47.064;15.482;2023-03-01T13:42:55;5.90;99.90
7496;DHT22;3789;47.064;15.482;2023-03-01T13:45:39;6.00;99.90
7496;DHT22;3789;47.064;15.482;2023-03-01T13:48:25;6.00;99.90
7496;DHT22;3789;47.064;15.482;2023-03-01T13:51:03;6.10;99.90
7496;DHT22;3789;47.064;15.482;2023-03-01T13:53:35;6.20;99.90
7496;DHT22;3789;47.064;15.482;2023-03-01T13:56:15;6.00;99.90
7496;DHT22;3789;47.064;15.482;2023-03-01T13:58:50;5.80;99.90
7496;DHT22;3789;47.064;15.482;2023-03-01T14:01:28;5.70;99.90
7496;DHT22;3789;47.064;15.482;2023-03-01T14:03:57;5.80;99.90
7496;DHT22;3789;47.064;15.482;2023-03-01T14:06:27;5.80;99.90
7496;DHT22;3789;47.064;15.482;2023-03-01T14:09:21;5.90;99.90
7496;DHT22;3789;47.064;15.482;2023-03-01T14:12:25;5.90;99.90
7496;DHT22;3789;47.064;15.482;2023-03-01T14:17:59;5.90;99.90
7496;DHT22;3789;47.064;15.482;2023-03-01T14:20:37;5.90;99.90
7496;DHT22;3789;47.064;15.482;2023-03-01T14:23:13;6.00;99.90
7496;DHT22;3789;47.064;15.482;2023-03-01T14:25:54;6.20;99.90
7496;DHT22;3789;47.064;15.482;2023-03-01T14:28:30;6.30;99.90
7496;DHT22;3789;47.064;15.482;2023-03-01T14:31:01;6.20;99.90
7496;DHT22;3789;47.064;15.482;2023-03-01T14:33:35;6.10;99.90
7496;DHT22;3789;47.064;15.482;2023-03-01T14:36:12;6.10;99.90
7496;DHT22;3789;47.064;15.482;2023-03-01T14:38:41;6.00;99.90
7496;DHT22;3789;47.064;15.482;2023-03-01T14:41:21;6.00;99.90
7496;DHT22;3789;47.064;15.482;2023-03-01T14:43:53;5.90;99.90
7496;DHT22;3789;47.064;15.482;2023-03-01T14:51:38;5.80;99.90
7496;DHT22;3789;47.064;15.482;2023-03-01T14:56:57;5.80;99.90
7496;DHT22;3789;47.064;15.482;2023-03-01T14:59:26;5.80;99.90
7496;DHT22;3789;47.064;15.482;2023-03-01T15:01:57;5.70;99.90
7496;DHT22;3789;47.064;15.482;2023-03-01T15:04:26;5.70;99.90
7496;DHT22;3789;47.064;15.482;2023-03-01T15:06:55;5.70;99.90
7496;DHT22;3789;47.064;15.482;2023-03-01T15:09:34;5.60;99.90
7496;DHT22;3789;47.064;15.482;2023-03-01T15:14:57;5.50;99.90
7496;DHT22;3789;47.064;15.482;2023-03-01T15:17:36;5.50;99.90
7496;DHT22;3789;47.064;15.482;2023-03-01T15:20:14;5.40;99.90
7496;DHT22;3789;47.064;15.482;2023-03-01T15:22:44;5.40;99.90
7496;DHT22;3789;47.064;15.482;2023-03-01T15:25:24;5.40;99.90
7496;DHT22;3789;47.064;15.482;2023-03-01T15:27:53;5.40;99.90
7496;DHT22;3789;47.064;15.482;2023-03-01T15:30:27;5.40;99.90
7496;DHT22;3789;47.064;15.482;2023-03-01T15:35:52;5.30;99.90
7496;DHT22;3789;47.064;15.482;2023-03-01T15:41:04;5.30;99.90
7496;DHT22;3789;47.064;15.482;2023-03-01T15:43:42;5.30;99.90
7496;DHT22;3789;47.064;15.482;2023-03-01T15:46:17;5.30;99.90
7496;DHT22;3789;47.064;15.482;2023-03-01T15:48:50;5.30;99.90
7496;DHT22;3789;47.064;15.482;2023-03-01T15:51:26;5.30;99.90
7496;DHT22;3789;47.064;15.482;2023-03-01T15:53:55;5.30;99.90
7496;DHT22;3789;47.064;15.482;2023-03-01T15:56:23;5.20;99.90
7496;DHT22;3789;47.064;15.482;2023-03-01T15:58:50;5.20;99.90
7496;DHT22;3789;47.064;15.482;2023-03-01T16:01:17;5.20;99.90
7496;DHT22;3789;47.064;15.482;2023-03-01T16:03:45;4.90;99.90
7496;DHT22;3789;47.064;15.482;2023-03-01T16:06:12;3.30;99.90
7496;DHT22;3789;47.064;15.482;2023-03-01T16:08:40;1.80;99.90
7496;DHT22;3789;47.064;15.482;2023-03-01T16:11:16;0.70;99.90
7496;DHT22;3789;47.064;15.482;2023-03-01T16:13:44;0.00;99.90
7496;DHT22;3789;47.064;15.482;2023-03-01T16:16:13;-0.40;99.90
7496;DHT22;3789;47.064;15.482;2023-03-01T16:18:46;-0.70;99.90
7496;DHT22;3789;47.064;15.482;2023-03-01T16:21:18;-0.80;99.90
7496;DHT22;3789;47.064;15.482;2023-03-01T16:23:47;-0.90;99.90
7496;DHT22;3789;47.064;15.482;2023-03-01T16:26:15;-0.60;99.90
7496;DHT22;3789;47.064;15.482;2023-03-01T16:28:42;-0.10;99.90
7496;DHT22;3789;47.064;15.482;2023-03-01T16:31:11;0.40;99.90
7496;DHT22;3789;47.064;15.482;2023-03-01T16:33:39;0.90;99.90
7496;DHT22;3789;47.064;15.482;2023-03-01T16:36:09;1.40;99.90
7496;DHT22;3789;47.064;15.482;2023-03-01T16:38:37;1.80;99.90
7496;DHT22;3789;47.064;15.482;2023-03-01T16:41:04;2.10;99.90
7496;DHT22;3789;47.064;15.482;2023-03-01T16:43:32;2.40;99.90
7496;DHT22;3789;47.064;15.482;2023-03-01T16:45:59;2.60;99.90
7496;DHT22;3789;47.064;15.482;2023-03-01T16:48:27;2.80;99.90
7496;DHT22;3789;47.064;15.482;2023-03-01T16:50:58;3.00;99.90
7496;DHT22;3789;47.064;15.482;2023-03-01T16:53:26;3.10;99.90
7496;DHT22;3789;47.064;15.482;2023-03-01T16:55:57;3.30;99.90
7496;DHT22;3789;47.064;15.482;2023-03-01T16:58:25;3.30;99.90
7496;DHT22;3789;47.064;15.482;2023-03-01T17:00:54;3.40;99.90
7496;DHT22;3789;47.064;15.482;2023-03-01T17:03:22;3.40;99.90
7496;DHT22;3789;47.064;15.482;2023-03-01T17:05:49;3.50;99.90
7496;DHT22;3789;47.064;15.482;2023-03-01T17:08:17;3.50;99.90
7496;DHT22;3789;47.064;15.482;2023-03-01T17:10:45;3.50;99.90
7496;DHT22;3789;47.064;15.482;2023-03-01T17:13:12;3.60;99.90
7496;DHT22;3789;47.064;15.482;2023-03-01T17:15:40;3.60;99.90
7496;DHT22;3789;47.064;15.482;2023-03-01T17:18:08;3.70;99.90
7496;DHT22;3789;47.064;15.482;2023-03-01T17:20:36;3.70;99.90
7496;DHT22;3789;47.064;15.482;2023-03-01T17:23:03;3.70;99.90
7496;DHT22;3789;47.064;15.482;2023-03-01T17:25:33;3.70;99.90
7496;DHT22;3789;47.064;15.482;2023-03-01T17:28:00;3.70;99.90
7496;DHT22;3789;47.064;15.482;2023-03-01T17:30:28;3.70;99.90
7496;DHT22;3789;47.064;15.482;2023-03-01T17:32:55;3.70;99.90
7496;DHT22;3789;47.064;15.482;2023-03-01T17:35:22;3.70;99.90
7496;DHT22;3789;47.064;15.482;2023-03-01T17:37:49;3.80;99.90
7496;DHT22;3789;47.064;15.482;2023-03-01T17:40:17;3.80;99.90
7496;DHT22;3789;47.064;15.482;2023-03-01T17:42:44;3.70;99.90
7496;DHT22;3789;47.064;15.482;2023-03-01T17:45:11;3.60;99.90
7496;DHT22;3789;47.064;15.482;2023-03-01T17:47:38;3.50;99.90
7496;DHT22;3789;47.064;15.482;2023-03-01T17:50:06;3.50;99.90
7496;DHT22;3789;47.064;15.482;2023-03-01T17:52:34;3.40;99.90
7496;DHT22;3789;47.064;15.482;2023-03-01T17:55:01;3.40;99.90
7496;DHT22;3789;47.064;15.482;2023-03-01T17:57:28;3.40;99.90
7496;DHT22;3789;47.064;15.482;2023-03-01T17:59:55;3.30;99.90
7496;DHT22;3789;47.064;15.482;2023-03-01T18:02:22;3.30;99.90
7496;DHT22;3789;47.064;15.482;2023-03-01T18:04:51;2.70;99.90
7496;DHT22;3789;47.064;15.482;2023-03-01T18:07:18;1.30;99.90
7496;DHT22;3789;47.064;15.482;2023-03-01T18:09:46;0.00;99.90
7496;DHT22;3789;47.064;15.482;2023-03-01T18:12:13;-1.10;99.90
7496;DHT22;3789;47.064;15.482;2023-03-01T18:14:41;-1.80;99.90
7496;DHT22;3789;47.064;15.482;2023-03-01T18:17:08;-2.30;99.90